createdAt,value
2022-08-12T00:00:08.553Z,99.90
2022-08-12T00:02:55.265Z,99.90
2022-08-12T00:06:01.782Z,99.90
2022-08-12T00:08:48.800Z,99.90
2022-08-12T00:11:34.302Z,99.90
2022-08-12T00:14:19.939Z,99.90
2022-08-12T00:17:06.701Z,99.90
2022-08-12T00:19:52.212Z,99.90
2022-08-12T00:22:38.436Z,99.90
2022-08-12T00:26:01.312Z,99.90
2022-08-12T00:28:30.678Z,99.90
2022-08-12T00:31:16.120Z,99.90
2022-08-12T00:34:01.584Z,99.90
2022-08-12T00:36:48.840Z,99.90
2022-08-12T00:39:36.389Z,99.90
2022-08-12T00:42:12.981Z,99.90
2022-08-12T00:44:44.582Z,99.90
2022-08-12T00:47:24.807Z,99.90
2022-08-12T00:49:54.537Z,99.90
2022-08-12T00:52:22.130Z,99.90
2022-08-12T00:54:57.512Z,99.90
2022-08-12T00:57:35.702Z,99.90
2022-08-12T01:00:06.185Z,99.90
2022-08-12T01:02:35.520Z,99.90
2022-08-12T01:05:27.396Z,99.90
2022-08-12T01:08:13.445Z,99.90
2022-08-12T01:11:00.895Z,99.90
2022-08-12T01:13:30.045Z,99.90
2022-08-12T01:16:02.039Z,99.90
2022-08-12T01:18:33.531Z,99.90
2022-08-12T01:21:09.471Z,99.90
2022-08-12T01:23:47.227Z,99.90
2022-08-12T01:26:19.280Z,99.90
2022-08-12T01:28:48.395Z,99.90
2022-08-12T01:31:19.494Z,99.90
2022-08-12T01:34:02.938Z,99.90
2022-08-12T01:36:36.481Z,99.90
2022-08-12T01:39:04.655Z,99.90
2022-08-12T01:41:35.131Z,99.90
2022-08-12T01:44:03.049Z,99.90
2022-08-12T01:46:56.938Z,99.90
2022-08-12T01:50:00.520Z,99.90
2022-08-12T01:52:41.457Z,99.90
2022-08-12T01:55:10.050Z,99.90
2022-08-12T01:57:59.236Z,99.90
2022-08-12T02:00:46.118Z,99.90
2022-08-12T02:03:58.265Z,99.90
2022-08-12T02:07:00.605Z,99.90
2022-08-12T02:10:50.380Z,99.90
2022-08-12T02:13:49.274Z,99.90
2022-08-12T02:16:50.994Z,99.90
2022-08-12T02:19:39.453Z,99.90
2022-08-12T02:22:28.205Z,99.90
2022-08-12T02:25:06.508Z,99.90
2022-08-12T02:27:42.343Z,99.90
2022-08-12T02:30:15.036Z,99.90
2022-08-12T02:32:45.371Z,99.90
2022-08-12T02:35:15.561Z,99.90
2022-08-12T02:37:43.878Z,99.90
2022-08-12T02:40:12.570Z,99.90
2022-08-12T02:42:56.596Z,99.90
2022-08-12T02:45:41.726Z,99.90
2022-08-12T02:48:10.537Z,99.90
2022-08-12T02:50:52.822Z,99.90
2022-08-12T02:53:20.590Z,99.90
2022-08-12T02:55:47.542Z,99.90
2022-08-12T02:58:15.364Z,99.90
2022-08-12T03:00:43.967Z,99.90
2022-08-12T03:03:13.430Z,99.90
2022-08-12T03:05:57.909Z,99.90
2022-08-12T03:08:32.445Z,99.90
2022-08-12T03:11:12.020Z,99.90
2022-08-12T03:13:45.954Z,99.90
2022-08-12T03:16:14.445Z,99.90
2022-08-12T03:18:45.690Z,99.90
2022-08-12T03:21:16.815Z,99.90
2022-08-12T03:23:45.808Z,99.90
2022-08-12T03:26:14.565Z,99.90
2022-08-12T03:28:51.788Z,99.90
2022-08-12T03:31:22.053Z,99.90
2022-08-12T03:34:02.166Z,99.90
2022-08-12T03:36:33.414Z,99.90
2022-08-12T03:39:15.862Z,99.90
2022-08-12T03:42:22.357Z,99.90
2022-08-12T03:45:29.570Z,99.90
2022-08-12T03:48:29.458Z,99.90
2022-08-12T03:51:16.564Z,99.90
2022-08-12T03:54:04.200Z,99.90
2022-08-12T03:56:51.899Z,99.90
2022-08-12T03:59:37.601Z,99.90
2022-08-12T04:02:04.970Z,99.90
2022-08-12T04:04:35.039Z,99.90
2022-08-12T04:07:07.789Z,99.90
2022-08-12T04:09:37.598Z,99.90
2022-08-12T04:12:23.424Z,99.90
2022-08-12T04:14:54.580Z,99.90
2022-08-12T04:17:21.964Z,99.90
2022-08-12T04:19:49.380Z,99.90
2022-08-12T04:22:16.789Z,99.90
2022-08-12T04:24:44.224Z,99.90
2022-08-12T04:27:17.228Z,99.90
2022-08-12T04:30:32.010Z,99.90
2022-08-12T04:32:32.732Z,99.90
2022-08-12T04:34:59.963Z,99.90
2022-08-12T04:37:27.544Z,99.90
2022-08-12T04:39:55.865Z,99.90
2022-08-12T04:42:23.760Z,99.90
2022-08-12T04:44:50.645Z,99.90
2022-08-12T04:47:18.011Z,99.90
2022-08-12T04:49:48.190Z,99.90
2022-08-12T04:52:15.510Z,99.90
2022-08-12T04:54:43.985Z,99.90
2022-08-12T04:57:10.964Z,99.90
2022-08-12T04:59:47.365Z,99.90
2022-08-12T05:02:21.212Z,99.90
2022-08-12T05:04:51.473Z,99.90
2022-08-12T05:07:18.691Z,99.90
2022-08-12T05:09:58.700Z,99.90
2022-08-12T05:12:34.315Z,99.90
2022-08-12T05:15:01.677Z,99.90
2022-08-12T05:17:28.660Z,99.90
2022-08-12T05:19:57.297Z,99.90
2022-08-12T05:22:26.092Z,99.90
2022-08-12T05:24:53.255Z,99.90
2022-08-12T05:27:22.755Z,99.90
2022-08-12T05:30:05.611Z,99.90
2022-08-12T05:32:37.101Z,99.90
2022-08-12T05:35:06.735Z,99.90
2022-08-12T05:37:35.142Z,99.90
2022-08-12T05:40:10.103Z,99.90
2022-08-12T05:42:38.052Z,99.90
2022-08-12T05:45:05.679Z,99.90
2022-08-12T05:47:44.876Z,99.90
2022-08-12T05:50:19.706Z,99.90
2022-08-12T05:52:48.102Z,99.90
2022-08-12T05:55:15.561Z,99.90
2022-08-12T05:57:48.324Z,99.90
2022-08-12T06:00:17.262Z,99.90
2022-08-12T06:02:46.399Z,99.90
2022-08-12T06:05:14.068Z,99.90
2022-08-12T06:08:01.616Z,99.90
2022-08-12T06:10:32.255Z,99.90
2022-08-12T06:13:05.240Z,99.90
2022-08-12T06:15:37.787Z,99.90
2022-08-12T06:18:13.964Z,99.90
2022-08-12T06:20:46.714Z,99.90
2022-08-12T06:23:15.458Z,99.90
2022-08-12T06:25:43.533Z,99.90
2022-08-12T06:28:21.069Z,99.90
2022-08-12T06:31:08.160Z,99.90
2022-08-12T06:33:54.932Z,99.90
2022-08-12T06:36:24.955Z,99.90
2022-08-12T06:38:57.767Z,99.90
2022-08-12T06:42:30.907Z,99.90
2022-08-12T06:44:30.716Z,99.90
2022-08-12T06:46:58.399Z,99.90
2022-08-12T06:49:25.529Z,99.90
2022-08-12T06:51:56.828Z,99.90
2022-08-12T06:54:31.967Z,99.90
2022-08-12T06:58:05.311Z,99.90
2022-08-12T06:59:50.897Z,99.90
2022-08-12T07:02:19.731Z,99.90
2022-08-12T07:04:47.505Z,99.90
2022-08-12T07:07:14.846Z,99.90
2022-08-12T07:10:06.033Z,99.90
2022-08-12T07:12:29.705Z,99.90
2022-08-12T07:15:01.511Z,99.90
2022-08-12T07:17:37.236Z,99.90
2022-08-12T07:20:29.470Z,99.90
2022-08-12T07:22:58.505Z,99.90
2022-08-12T07:25:31.044Z,99.90
2022-08-12T07:28:16.381Z,99.90
2022-08-12T07:30:46.830Z,99.90
2022-08-12T07:33:15.701Z,99.90
2022-08-12T07:35:47.669Z,99.90
2022-08-12T07:38:33.467Z,99.90
2022-08-12T07:41:06.051Z,99.90
2022-08-12T07:43:39.189Z,99.90
2022-08-12T07:46:08.247Z,99.90
2022-08-12T07:48:38.408Z,99.90
2022-08-12T07:51:05.878Z,99.90
2022-08-12T07:53:33.415Z,99.90
2022-08-12T07:56:16.091Z,99.90
2022-08-12T07:58:47.004Z,99.90
2022-08-12T08:01:21.326Z,99.90
2022-08-12T08:04:14.050Z,99.90
2022-08-12T08:06:44.763Z,99.90
2022-08-12T08:09:14.773Z,99.90
2022-08-12T08:12:00.151Z,99.90
2022-08-12T08:14:29.053Z,97.30
2022-08-12T08:16:57.789Z,92.50
2022-08-12T08:19:25.909Z,91.00
2022-08-12T08:21:58.663Z,89.60
2022-08-12T08:24:27.974Z,87.50
2022-08-12T08:26:58.407Z,88.20
2022-08-12T08:29:25.842Z,81.40
2022-08-12T08:32:00.913Z,79.30
2022-08-12T08:34:53.731Z,78.90
2022-08-12T08:37:17.236Z,80.90
2022-08-12T08:39:44.380Z,77.40
2022-08-12T08:42:30.005Z,73.20
2022-08-12T08:44:58.718Z,71.40
2022-08-12T08:47:26.080Z,71.30
2022-08-12T08:49:52.966Z,72.50
2022-08-12T08:52:39.684Z,69.30
2022-08-12T08:55:07.868Z,68.50
2022-08-12T08:57:43.179Z,65.80
2022-08-12T09:00:17.304Z,67.20
2022-08-12T09:02:49.121Z,65.80
2022-08-12T09:05:25.888Z,63.10
2022-08-12T09:08:14.327Z,58.60
2022-08-12T09:10:45.006Z,59.10
2022-08-12T09:14:12.061Z,56.90
2022-08-12T09:16:21.478Z,56.90
2022-08-12T09:18:52.377Z,56.20
2022-08-12T09:21:21.336Z,55.20
2022-08-12T09:26:46.374Z,55.30
2022-08-12T09:29:15.503Z,53.60
2022-08-12T09:32:03.316Z,55.00
2022-08-12T09:34:34.142Z,52.90
2022-08-12T09:37:19.312Z,52.50
2022-08-12T09:40:05.338Z,52.00
2022-08-12T09:46:06.670Z,51.70
2022-08-12T09:48:35.169Z,51.70
2022-08-12T09:51:04.400Z,51.50
2022-08-12T09:53:38.391Z,51.00
2022-08-12T09:56:59.171Z,51.30
2022-08-12T09:59:09.973Z,51.10
2022-08-12T10:02:43.342Z,49.60
2022-08-12T10:04:25.842Z,49.90
2022-08-12T10:06:53.898Z,49.90
2022-08-12T10:09:57.109Z,49.50
2022-08-12T10:12:31.476Z,49.30
2022-08-12T10:16:01.872Z,47.80
2022-08-12T10:18:06.895Z,46.20
2022-08-12T10:20:34.475Z,46.80
2022-08-12T10:23:01.623Z,46.30
2022-08-12T10:26:10.044Z,47.60
2022-08-12T10:29:01.916Z,46.30
2022-08-12T10:32:01.685Z,46.50
2022-08-12T10:34:25.921Z,45.90
2022-08-12T10:37:10.459Z,44.00
2022-08-12T10:40:06.905Z,44.10
2022-08-12T10:43:00.618Z,44.90
2022-08-12T10:45:30.433Z,43.50
2022-08-12T10:48:20.456Z,43.30
2022-08-12T10:50:56.710Z,43.00
2022-08-12T10:53:45.421Z,43.60
2022-08-12T10:56:15.416Z,42.30
2022-08-12T10:58:46.111Z,43.60
2022-08-12T11:01:50.531Z,43.40
2022-08-12T11:04:23.266Z,43.20
2022-08-12T11:07:03.197Z,40.40
2022-08-12T11:09:41.574Z,40.80
2022-08-12T11:12:56.674Z,39.90
2022-08-12T11:15:19.133Z,40.50
2022-08-12T11:17:54.335Z,39.20
2022-08-12T11:20:30.681Z,39.60
2022-08-12T11:23:24.638Z,39.90
2022-08-12T11:25:57.733Z,39.90
2022-08-12T11:28:33.794Z,38.50
2022-08-12T11:31:04.329Z,37.70
2022-08-12T11:34:04.453Z,37.90
2022-08-12T11:36:22.262Z,38.50
2022-08-12T11:38:50.905Z,38.90
2022-08-12T11:41:30.892Z,39.00
2022-08-12T11:44:35.464Z,38.50
2022-08-12T11:46:51.200Z,39.10
2022-08-12T11:49:31.081Z,37.40
2022-08-12T11:51:59.420Z,36.30
2022-08-12T11:54:26.390Z,36.80
2022-08-12T11:57:02.068Z,37.10
2022-08-12T12:02:20.613Z,37.90
2022-08-12T12:04:53.033Z,38.20
2022-08-12T12:07:34.050Z,35.30
2022-08-12T12:10:15.498Z,36.10
2022-08-12T12:12:50.113Z,35.30
2022-08-12T12:15:24.572Z,37.50
2022-08-12T12:17:55.805Z,36.30
2022-08-12T12:20:26.069Z,34.70
2022-08-12T12:22:54.668Z,35.60
2022-08-12T12:25:21.439Z,35.80
2022-08-12T12:28:08.295Z,35.20
2022-08-12T12:30:55.164Z,36.20
2022-08-12T12:33:22.287Z,35.40
2022-08-12T12:36:18.694Z,35.00
2022-08-12T12:38:35.996Z,34.80
2022-08-12T12:41:16.525Z,35.70
2022-08-12T12:43:47.585Z,34.40
2022-08-12T12:46:30.787Z,35.10
2022-08-12T12:48:57.495Z,36.00
2022-08-12T12:51:49.525Z,36.60
2022-08-12T12:54:11.460Z,37.50
2022-08-12T12:56:42.808Z,35.20
2022-08-12T12:59:54.394Z,36.50
2022-08-12T13:02:08.047Z,35.80
2022-08-12T13:04:37.215Z,35.30
2022-08-12T13:07:05.715Z,34.80
2022-08-12T13:09:36.504Z,36.10
2022-08-12T13:12:08.903Z,36.40
2022-08-12T13:14:39.655Z,35.60
2022-08-12T13:17:09.551Z,35.10
2022-08-12T13:19:44.531Z,35.10
2022-08-12T13:22:19.228Z,34.50
2022-08-12T13:24:55.535Z,35.60
2022-08-12T13:27:48.267Z,33.10
2022-08-12T13:30:25.978Z,31.90
2022-08-12T13:32:58.504Z,33.30
2022-08-12T13:36:06.156Z,33.50
2022-08-12T13:38:38.752Z,34.20
2022-08-12T13:41:11.229Z,33.80
2022-08-12T13:43:41.371Z,33.50
2022-08-12T13:46:12.204Z,33.70
2022-08-12T13:48:45.103Z,32.90
2022-08-12T13:51:13.812Z,32.90
2022-08-12T13:53:57.667Z,32.30
2022-08-12T13:56:33.479Z,33.40
2022-08-12T13:59:05.603Z,32.70
2022-08-12T14:01:35.646Z,32.90
2022-08-12T14:04:11.404Z,33.60
2022-08-12T14:06:39.577Z,34.60
2022-08-12T14:09:17.830Z,33.60
2022-08-12T14:11:51.181Z,31.60
2022-08-12T14:14:27.171Z,32.60
2022-08-12T14:16:53.898Z,33.70
2022-08-12T14:19:23.109Z,34.30
2022-08-12T14:21:59.091Z,34.20
2022-08-12T14:24:27.324Z,34.60
2022-08-12T14:26:58.869Z,34.70
2022-08-12T14:29:56.202Z,35.40
2022-08-12T14:32:17.598Z,35.40
2022-08-12T14:34:46.999Z,36.50
2022-08-12T14:37:54.948Z,35.70
2022-08-12T14:40:00.598Z,36.20
2022-08-12T14:42:28.406Z,37.40
2022-08-12T14:45:01.150Z,36.40
2022-08-12T14:47:35.613Z,35.00
2022-08-12T14:50:41.243Z,35.30
2022-08-12T14:58:28.611Z,35.90
2022-08-12T15:01:21.184Z,36.50
2022-08-12T15:03:53.882Z,36.20
2022-08-12T15:06:39.068Z,35.40
2022-08-12T15:09:13.717Z,36.30
2022-08-12T15:11:54.811Z,36.00
2022-08-12T15:14:22.272Z,36.60
2022-08-12T15:16:50.027Z,38.30
2022-08-12T15:20:11.885Z,39.10
2022-08-12T15:22:39.458Z,40.30
2022-08-12T15:24:51.043Z,39.90
2022-08-12T15:27:22.464Z,40.30
2022-08-12T15:30:04.995Z,40.30
2022-08-12T15:32:32.897Z,40.40
2022-08-12T15:35:00.650Z,39.90
2022-08-12T15:38:08.265Z,39.90
2022-08-12T15:40:15.374Z,41.10
2022-08-12T15:42:59.724Z,41.60
2022-08-12T15:45:32.242Z,41.90
2022-08-12T15:48:04.504Z,41.50
2022-08-12T15:50:45.620Z,41.30
2022-08-12T15:53:15.393Z,41.70
2022-08-12T15:55:46.208Z,43.50
2022-08-12T15:58:16.645Z,43.70
2022-08-12T16:00:43.955Z,43.60
2022-08-12T16:03:13.593Z,44.50
2022-08-12T16:06:17.020Z,44.60
2022-08-12T16:08:36.404Z,44.40
2022-08-12T16:11:07.226Z,44.60
2022-08-12T16:13:35.243Z,44.70
2022-08-12T16:16:23.100Z,44.40
2022-08-12T16:18:56.259Z,44.70
2022-08-12T16:21:50.239Z,45.20
2022-08-12T16:24:11.609Z,45.90
2022-08-12T16:26:40.523Z,45.70
2022-08-12T16:29:15.585Z,46.00
2022-08-12T16:31:44.280Z,46.60
2022-08-12T16:34:41.985Z,46.70
2022-08-12T16:37:13.135Z,47.10
2022-08-12T16:39:59.623Z,47.40
2022-08-12T16:42:27.805Z,48.20
2022-08-12T16:45:02.568Z,47.40
2022-08-12T16:47:43.937Z,48.10
2022-08-12T16:50:31.083Z,47.90
2022-08-12T16:52:59.717Z,48.70
2022-08-12T16:55:41.970Z,49.20
2022-08-12T16:58:25.589Z,49.40
2022-08-12T17:00:55.619Z,49.60
2022-08-12T17:03:28.790Z,49.40
2022-08-12T17:05:56.149Z,49.90
2022-08-12T17:08:29.001Z,50.10
2022-08-12T17:10:56.629Z,50.40
2022-08-12T17:13:26.065Z,50.60
2022-08-12T17:16:05.689Z,51.60
2022-08-12T17:18:43.113Z,51.20
2022-08-12T17:21:12.362Z,51.30
2022-08-12T17:23:48.679Z,51.20
2022-08-12T17:26:22.244Z,51.60
2022-08-12T17:28:52.422Z,51.60
2022-08-12T17:31:59.837Z,51.30
2022-08-12T17:34:28.173Z,50.90
2022-08-12T17:36:58.673Z,51.20
2022-08-12T17:40:06.332Z,51.40
2022-08-12T17:42:34.513Z,51.50
2022-08-12T17:45:18.245Z,51.60
2022-08-12T17:48:01.198Z,52.20
2022-08-12T17:50:38.779Z,52.40
2022-08-12T17:53:10.731Z,52.30
2022-08-12T17:55:47.894Z,52.90
2022-08-12T17:58:35.580Z,53.00
2022-08-12T18:01:06.096Z,53.40
2022-08-12T18:04:05.886Z,53.60
2022-08-12T18:06:28.327Z,54.00
2022-08-12T18:08:59.106Z,54.20
2022-08-12T18:12:05.746Z,54.30
2022-08-12T18:14:32.434Z,54.20
2022-08-12T18:17:01.618Z,54.70
2022-08-12T18:20:04.123Z,54.20
2022-08-12T18:22:22.290Z,54.50
2022-08-12T18:25:04.964Z,54.20
2022-08-12T18:27:46.682Z,54.50
2022-08-12T18:30:20.545Z,54.70
2022-08-12T18:33:03.645Z,55.00
2022-08-12T18:35:47.691Z,55.30
2022-08-12T18:38:22.060Z,55.40
2022-08-12T18:41:10.018Z,55.80
2022-08-12T18:43:59.488Z,55.70
2022-08-12T18:46:32.245Z,56.30
2022-08-12T18:49:18.240Z,56.10
2022-08-12T18:52:02.185Z,56.10
2022-08-12T18:54:53.405Z,55.90
2022-08-12T18:58:05.773Z,56.10
2022-08-12T19:00:18.790Z,56.30
2022-08-12T19:02:50.530Z,56.40
2022-08-12T19:05:20.272Z,56.20
2022-08-12T19:08:01.023Z,56.50
2022-08-12T19:10:31.278Z,56.90
2022-08-12T19:13:23.143Z,56.80
2022-08-12T19:15:53.234Z,56.90
2022-08-12T19:18:22.266Z,57.00
2022-08-12T19:20:50.707Z,57.70
2022-08-12T19:23:21.021Z,57.20
2022-08-12T19:26:00.156Z,57.50
2022-08-12T19:28:35.288Z,57.70
2022-08-12T19:31:56.661Z,57.70
2022-08-12T19:35:06.622Z,58.90
2022-08-12T19:37:26.788Z,58.90
2022-08-12T19:40:09.345Z,59.50
2022-08-12T19:42:53.809Z,59.70
2022-08-12T19:45:24.698Z,59.80
2022-08-12T19:48:17.073Z,60.10
2022-08-12T19:50:50.130Z,60.50
2022-08-12T19:53:19.983Z,60.80
2022-08-12T19:55:54.146Z,61.10
2022-08-12T19:58:22.360Z,61.20
2022-08-12T20:00:53.279Z,61.40
2022-08-12T20:03:37.985Z,61.90
2022-08-12T20:06:16.089Z,62.70
2022-08-12T20:08:56.503Z,64.20
2022-08-12T20:12:11.335Z,64.80
2022-08-12T20:14:18.467Z,65.70
2022-08-12T20:17:01.530Z,67.20
2022-08-12T20:20:16.571Z,68.30
2022-08-12T20:22:31.364Z,70.30
2022-08-12T20:25:02.806Z,73.90
2022-08-12T20:28:04.885Z,77.60
2022-08-12T20:30:20.650Z,81.00
2022-08-12T20:33:05.165Z,89.70
2022-08-12T20:36:05.910Z,92.50
2022-08-12T20:38:26.458Z,95.20
2022-08-12T20:40:54.040Z,98.00
2022-08-12T20:43:24.236Z,98.90
2022-08-12T20:45:57.154Z,99.90
2022-08-12T20:48:26.210Z,99.90
2022-08-12T20:50:57.529Z,99.90
2022-08-12T20:53:26.546Z,99.90
2022-08-12T20:56:00.381Z,99.90
2022-08-12T20:58:28.391Z,99.90
2022-08-12T21:00:59.963Z,99.90
2022-08-12T21:03:52.371Z,99.90
2022-08-12T21:06:43.307Z,99.90
2022-08-12T21:09:10.343Z,99.90
2022-08-12T21:11:37.750Z,99.90
2022-08-12T21:14:06.021Z,99.90
2022-08-12T21:16:39.072Z,99.90
2022-08-12T21:19:08.213Z,99.90
2022-08-12T21:21:47.101Z,99.90
2022-08-12T21:24:17.701Z,99.90
2022-08-12T21:26:53.701Z,99.90
2022-08-12T21:29:21.824Z,99.90
2022-08-12T21:32:37.361Z,99.90
2022-08-12T21:34:36.188Z,99.90
2022-08-12T21:37:13.107Z,99.90
2022-08-12T21:39:56.322Z,99.90
2022-08-12T21:42:27.984Z,99.90
2022-08-12T21:45:45.685Z,99.90
2022-08-12T21:47:46.433Z,99.90
2022-08-12T21:50:13.525Z,99.90
2022-08-12T21:52:42.056Z,99.90
2022-08-12T21:55:18.019Z,99.90
2022-08-12T21:57:53.462Z,99.90
2022-08-12T22:00:33.217Z,99.90
2022-08-12T22:04:01.832Z,99.90
2022-08-12T22:06:19.879Z,99.90
2022-08-12T22:08:55.850Z,99.90
2022-08-12T22:11:42.246Z,99.90
2022-08-12T22:14:21.384Z,99.90
2022-08-12T22:16:51.051Z,99.90
2022-08-12T22:19:19.671Z,99.90
2022-08-12T22:21:53.362Z,99.90
2022-08-12T22:24:26.231Z,99.90
2022-08-12T22:26:58.532Z,99.90
2022-08-12T22:29:43.649Z,99.90
2022-08-12T22:32:12.053Z,99.90
2022-08-12T22:34:39.404Z,99.90
2022-08-12T22:37:11.392Z,99.90
2022-08-12T22:39:46.487Z,99.90
2022-08-12T22:42:34.578Z,99.90
2022-08-12T22:45:48.818Z,99.90
2022-08-12T22:48:26.482Z,99.90
2022-08-12T22:50:59.111Z,99.90
2022-08-12T22:53:35.789Z,99.90
2022-08-12T22:56:08.133Z,99.90
2022-08-12T22:58:40.383Z,99.90
2022-08-12T23:01:10.576Z,99.90
2022-08-12T23:03:48.032Z,99.90
2022-08-12T23:06:19.720Z,99.90
2022-08-12T23:08:48.043Z,99.90
2022-08-12T23:11:16.256Z,99.90
2022-08-12T23:13:55.445Z,99.90
2022-08-12T23:16:33.167Z,99.90
2022-08-12T23:19:17.827Z,99.90
2022-08-12T23:22:06.629Z,99.90
2022-08-12T23:24:56.656Z,99.90
2022-08-12T23:27:51.885Z,99.90
2022-08-12T23:30:31.924Z,99.90
2022-08-12T23:33:19.737Z,99.90
2022-08-12T23:35:59.270Z,99.90
2022-08-12T23:38:32.302Z,99.90
2022-08-12T23:41:01.677Z,99.90
2022-08-12T23:43:39.416Z,99.90
2022-08-12T23:46:09.141Z,99.90
2022-08-12T23:48:37.559Z,99.90
2022-08-12T23:51:22.215Z,99.90
2022-08-12T23:53:54.974Z,99.90
2022-08-12T23:56:23.668Z,99.90
2022-08-12T23:58:52.518Z,99.90
